createdAt,value
2022-12-18T00:01:44.440Z,40.47
2022-12-18T00:04:21.144Z,43.50
2022-12-18T00:06:47.615Z,42.13
2022-12-18T00:09:14.994Z,44.72
2022-12-18T00:11:41.434Z,50.22
2022-12-18T00:14:08.160Z,45.05
2022-12-18T00:16:36.359Z,46.13
2022-12-18T00:19:03.849Z,38.38
2022-12-18T00:21:31.457Z,39.85
2022-12-18T00:23:59.052Z,41.85
2022-12-18T00:26:27.842Z,44.63
2022-12-18T00:29:07.003Z,47.70
2022-12-18T00:31:34.030Z,50.83
2022-12-18T00:34:01.896Z,45.78
2022-12-18T00:36:31.702Z,50.08
2022-12-18T00:38:59.349Z,47.83
2022-12-18T00:41:44.525Z,49.70
2022-12-18T00:44:13.470Z,43.33
2022-12-18T00:46:40.219Z,45.85
2022-12-18T00:49:07.819Z,43.80
2022-12-18T00:51:35.259Z,46.97
2022-12-18T00:54:02.260Z,46.25
2022-12-18T00:56:28.743Z,43.03
2022-12-18T00:58:55.231Z,49.35
2022-12-18T01:01:22.206Z,46.08
2022-12-18T01:03:49.003Z,45.42
2022-12-18T01:06:17.200Z,43.85
2022-12-18T01:08:44.841Z,44.35
2022-12-18T01:13:42.023Z,46.92
2022-12-18T01:16:09.965Z,43.60
2022-12-18T01:18:36.718Z,53.22
2022-12-18T01:21:07.740Z,42.88
2022-12-18T01:23:37.344Z,45.25
2022-12-18T01:26:08.449Z,46.75
2022-12-18T01:28:36.122Z,45.65
2022-12-18T01:31:24.421Z,49.30
2022-12-18T01:33:52.013Z,50.20
2022-12-18T01:36:24.973Z,43.53
2022-12-18T01:38:52.443Z,41.88
2022-12-18T01:41:22.745Z,37.15
2022-12-18T01:43:53.464Z,43.78
2022-12-18T01:46:22.543Z,38.65
2022-12-18T01:48:54.810Z,45.25
2022-12-18T01:51:21.433Z,42.70
2022-12-18T01:53:48.762Z,42.85
2022-12-18T01:56:17.330Z,45.10
2022-12-18T01:58:49.276Z,44.42
2022-12-18T02:01:16.101Z,42.28
2022-12-18T02:03:44.170Z,45.47
2022-12-18T02:06:24.969Z,44.65
2022-12-18T02:09:18.704Z,39.70
2022-12-18T02:11:54.164Z,47.08
2022-12-18T02:14:38.490Z,41.33
2022-12-18T02:17:09.549Z,46.67
2022-12-18T02:20:16.213Z,41.03
2022-12-18T02:23:15.868Z,45.92
2022-12-18T02:26:08.868Z,44.28
2022-12-18T02:28:56.747Z,47.95
2022-12-18T02:31:27.503Z,43.63
2022-12-18T02:33:57.600Z,43.28
2022-12-18T02:36:24.518Z,44.40
2022-12-18T02:38:54.642Z,47.03
2022-12-18T02:41:25.305Z,46.95
2022-12-18T02:44:02.432Z,45.35
2022-12-18T02:46:37.916Z,46.50
2022-12-18T02:49:25.507Z,44.20
2022-12-18T02:51:55.506Z,45.55
2022-12-18T02:54:37.515Z,44.03
2022-12-18T02:57:14.372Z,45.88
2022-12-18T02:59:47.433Z,46.97
2022-12-18T03:02:23.746Z,49.00
2022-12-18T03:05:13.345Z,48.40
2022-12-18T03:08:03.949Z,46.30
2022-12-18T03:10:50.601Z,48.10
2022-12-18T03:13:34.650Z,48.60
2022-12-18T03:16:03.562Z,43.95
2022-12-18T03:18:58.236Z,45.58
2022-12-18T03:21:31.037Z,46.45
2022-12-18T03:23:58.862Z,47.08
2022-12-18T03:26:27.662Z,53.00
2022-12-18T03:29:01.081Z,47.65
2022-12-18T03:31:30.404Z,49.17
2022-12-18T03:34:03.178Z,49.00
2022-12-18T03:36:38.767Z,46.90
2022-12-18T03:39:05.772Z,48.13
2022-12-18T03:41:46.261Z,47.40
2022-12-18T03:44:28.048Z,42.08
2022-12-18T03:47:32.632Z,45.85
2022-12-18T03:50:16.689Z,46.33
2022-12-18T03:52:50.569Z,45.65
2022-12-18T03:55:18.949Z,45.60
2022-12-18T03:57:49.058Z,43.78
2022-12-18T04:00:17.702Z,50.45
2022-12-18T04:02:57.662Z,48.70
2022-12-18T04:05:34.250Z,45.65
2022-12-18T04:08:02.106Z,50.05
2022-12-18T04:10:29.069Z,46.40
2022-12-18T04:12:59.149Z,47.65
2022-12-18T04:15:27.026Z,42.97
2022-12-18T04:17:53.533Z,51.42
2022-12-18T04:20:23.323Z,47.05
2022-12-18T04:22:50.270Z,47.05
2022-12-18T04:25:19.287Z,45.67
2022-12-18T04:28:05.419Z,46.83
2022-12-18T04:30:33.307Z,45.28
2022-12-18T04:32:59.887Z,43.92
2022-12-18T04:35:27.295Z,44.78
2022-12-18T04:37:53.782Z,45.97
2022-12-18T04:40:20.320Z,41.58
2022-12-18T04:42:48.466Z,45.63
2022-12-18T04:45:14.900Z,45.90
2022-12-18T04:47:41.391Z,41.90
2022-12-18T04:50:08.265Z,43.17
2022-12-18T04:52:34.696Z,41.20
2022-12-18T04:55:01.163Z,42.03
2022-12-18T04:57:27.683Z,38.60
2022-12-18T04:59:54.153Z,42.20
2022-12-18T05:02:20.711Z,42.55
2022-12-18T05:04:47.234Z,39.42
2022-12-18T05:07:13.719Z,41.72
2022-12-18T05:09:40.172Z,45.53
2022-12-18T05:12:06.693Z,39.67
2022-12-18T05:14:33.149Z,45.25
2022-12-18T05:17:01.236Z,46.92
2022-12-18T05:19:27.951Z,44.78
2022-12-18T05:21:54.519Z,35.00
2022-12-18T05:24:21.008Z,41.70
2022-12-18T05:26:47.495Z,41.55
2022-12-18T05:29:14.085Z,37.08
2022-12-18T05:31:41.118Z,37.95
2022-12-18T05:34:09.408Z,38.88
2022-12-18T05:36:37.208Z,37.63
2022-12-18T05:39:04.032Z,37.63
2022-12-18T05:41:30.965Z,36.63
2022-12-18T05:43:57.540Z,40.85
2022-12-18T05:46:25.087Z,38.97
2022-12-18T05:48:51.761Z,38.88
2022-12-18T05:51:20.615Z,40.55
2022-12-18T05:53:47.702Z,44.30
2022-12-18T05:56:16.190Z,41.08
2022-12-18T05:58:42.993Z,40.72
2022-12-18T06:01:15.129Z,38.00
2022-12-18T06:03:42.150Z,46.03
2022-12-18T06:06:21.158Z,46.70
2022-12-18T06:08:47.894Z,42.80
2022-12-18T06:11:17.912Z,41.28
2022-12-18T06:13:44.352Z,40.17
2022-12-18T06:16:11.462Z,46.10
2022-12-18T06:18:38.046Z,44.28
2022-12-18T06:21:04.518Z,43.50
2022-12-18T06:23:31.115Z,46.45
2022-12-18T06:25:57.551Z,44.40
2022-12-18T06:28:24.197Z,44.13
2022-12-18T06:30:51.198Z,43.30
2022-12-18T06:33:17.877Z,45.75
2022-12-18T06:35:44.337Z,40.83
2022-12-18T06:38:10.771Z,41.13
2022-12-18T06:40:39.065Z,41.20
2022-12-18T06:43:06.158Z,43.40
2022-12-18T06:45:32.657Z,44.65
2022-12-18T06:47:59.112Z,44.03
2022-12-18T06:50:25.728Z,48.75
2022-12-18T06:52:52.257Z,44.22
2022-12-18T06:55:18.891Z,40.97
2022-12-18T06:57:45.402Z,47.20
2022-12-18T07:00:12.126Z,44.97
2022-12-18T07:02:38.677Z,50.10
2022-12-18T07:05:10.484Z,50.53
2022-12-18T07:07:37.590Z,44.55
2022-12-18T07:10:04.669Z,46.50
2022-12-18T07:12:31.126Z,48.45
2022-12-18T07:14:57.583Z,51.38
2022-12-18T07:17:25.151Z,54.88
2022-12-18T07:19:51.632Z,46.33
2022-12-18T07:22:18.168Z,44.10
2022-12-18T07:24:44.641Z,48.20
2022-12-18T07:27:11.025Z,46.53
2022-12-18T07:29:37.514Z,47.63
2022-12-18T07:32:04.922Z,49.63
2022-12-18T07:34:31.427Z,68.88
2022-12-18T07:36:58.950Z,49.58
2022-12-18T07:39:25.463Z,62.58
2022-12-18T07:42:11.974Z,69.90
2022-12-18T07:44:40.179Z,63.20
2022-12-18T07:47:11.776Z,54.17
2022-12-18T07:49:38.819Z,47.28
2022-12-18T07:52:05.321Z,55.20
2022-12-18T07:54:31.941Z,46.88
2022-12-18T07:56:58.339Z,54.38
2022-12-18T07:59:24.816Z,50.05
2022-12-18T08:01:51.273Z,48.85
2022-12-18T08:04:18.045Z,55.92
2022-12-18T08:06:47.752Z,50.38
2022-12-18T08:09:15.164Z,48.30
2022-12-18T08:11:41.582Z,54.25
2022-12-18T08:14:08.009Z,53.15
2022-12-18T08:16:34.504Z,49.70
2022-12-18T08:19:00.957Z,55.42
2022-12-18T08:21:29.335Z,54.92
2022-12-18T08:23:58.100Z,52.28
2022-12-18T08:26:26.111Z,51.72
2022-12-18T08:28:54.173Z,56.47
2022-12-18T08:31:21.018Z,57.63
2022-12-18T08:33:50.865Z,56.05
2022-12-18T08:36:17.413Z,52.13
2022-12-18T08:38:43.950Z,51.08
2022-12-18T08:41:12.563Z,52.40
2022-12-18T08:43:57.632Z,55.53
2022-12-18T08:46:26.231Z,53.33
2022-12-18T08:48:53.124Z,53.80
2022-12-18T08:51:20.546Z,53.15
2022-12-18T08:53:47.356Z,57.42
2022-12-18T08:56:15.200Z,51.42
2022-12-18T08:58:42.395Z,54.85
2022-12-18T09:01:10.793Z,57.22
2022-12-18T09:03:37.610Z,53.58
2022-12-18T09:06:04.715Z,58.38
2022-12-18T09:08:31.147Z,56.67
2022-12-18T09:13:26.558Z,60.65
2022-12-18T09:15:55.038Z,62.20
2022-12-18T09:18:22.558Z,57.13
2022-12-18T09:20:49.007Z,60.80
2022-12-18T09:23:15.588Z,57.22
2022-12-18T09:25:42.172Z,61.22
2022-12-18T09:28:19.093Z,58.95
2022-12-18T09:30:50.358Z,61.55
2022-12-18T09:33:17.677Z,55.92
2022-12-18T09:35:45.105Z,55.13
2022-12-18T09:38:18.739Z,53.72
2022-12-18T09:40:59.713Z,51.72
2022-12-18T09:43:34.035Z,54.75
2022-12-18T09:46:03.621Z,55.38
2022-12-18T09:48:33.657Z,60.78
2022-12-18T09:51:05.227Z,55.22
2022-12-18T09:53:34.188Z,55.28
2022-12-18T09:56:01.477Z,50.63
2022-12-18T09:58:32.109Z,48.17
2022-12-18T10:00:58.616Z,45.58
2022-12-18T10:03:25.273Z,54.20
2022-12-18T10:05:58.173Z,55.70
2022-12-18T10:08:30.221Z,59.58
2022-12-18T10:11:23.098Z,61.92
2022-12-18T10:14:22.030Z,58.92
2022-12-18T10:19:50.032Z,61.85
2022-12-18T10:22:37.796Z,59.92
2022-12-18T10:25:28.736Z,62.38
2022-12-18T10:28:01.362Z,70.03
2022-12-18T10:30:28.396Z,66.38
2022-12-18T10:32:55.186Z,67.70
2022-12-18T10:35:27.611Z,65.07
2022-12-18T10:38:02.036Z,60.80
2022-12-18T10:40:28.576Z,62.92
2022-12-18T10:43:13.286Z,66.15
2022-12-18T10:45:40.624Z,73.78
2022-12-18T10:48:22.250Z,72.72
2022-12-18T10:53:38.014Z,69.70
2022-12-18T10:56:06.081Z,60.80
2022-12-18T10:58:37.649Z,101.05
2022-12-18T11:01:07.310Z,82.75
2022-12-18T11:03:42.496Z,73.20
2022-12-18T11:06:11.955Z,63.50
2022-12-18T11:08:39.301Z,63.28
2022-12-18T11:11:17.335Z,58.42
2022-12-18T11:13:54.094Z,57.60
2022-12-18T11:16:21.078Z,55.35
2022-12-18T11:18:47.576Z,57.17
2022-12-18T11:21:15.521Z,56.85
2022-12-18T11:23:50.466Z,61.78
2022-12-18T11:26:17.825Z,60.97
2022-12-18T11:28:51.737Z,63.03
2022-12-18T11:31:25.599Z,62.65
2022-12-18T11:34:28.084Z,62.95
2022-12-18T11:36:49.156Z,66.97
2022-12-18T11:39:36.264Z,61.55
2022-12-18T11:42:12.297Z,64.47
2022-12-18T11:44:43.592Z,65.07
2022-12-18T11:47:15.170Z,61.55
2022-12-18T11:49:42.315Z,63.85
2022-12-18T11:54:53.752Z,59.38
2022-12-18T11:57:39.314Z,61.05
2022-12-18T12:00:11.723Z,63.30
2022-12-18T12:02:58.111Z,61.08
2022-12-18T12:05:52.064Z,66.63
2022-12-18T12:08:36.139Z,62.10
2022-12-18T12:11:12.125Z,65.68
2022-12-18T12:13:44.895Z,64.32
2022-12-18T12:16:21.417Z,65.18
2022-12-18T12:18:57.720Z,62.67
2022-12-18T12:21:53.506Z,65.65
2022-12-18T12:24:49.118Z,61.40
2022-12-18T12:27:33.503Z,59.58
2022-12-18T12:30:21.633Z,64.97
2022-12-18T12:33:02.540Z,60.47
2022-12-18T12:35:35.521Z,58.58
2022-12-18T12:38:05.901Z,63.75
2022-12-18T12:40:55.319Z,60.47
2022-12-18T12:43:46.041Z,63.35
2022-12-18T12:46:18.063Z,65.43
2022-12-18T12:48:51.085Z,60.75
2022-12-18T12:51:21.306Z,60.53
2022-12-18T12:53:48.992Z,62.67
2022-12-18T12:56:20.131Z,62.47
2022-12-18T12:58:58.385Z,63.88
2022-12-18T13:01:40.894Z,64.88
2022-12-18T13:04:16.419Z,62.88
2022-12-18T13:07:01.072Z,63.45
2022-12-18T13:09:37.939Z,61.83
2022-12-18T13:12:28.004Z,65.88
2022-12-18T13:15:14.013Z,62.33
2022-12-18T13:17:40.502Z,64.20
2022-12-18T13:20:11.260Z,64.38
2022-12-18T13:22:43.528Z,69.35
2022-12-18T13:25:31.040Z,69.38
2022-12-18T13:28:03.690Z,64.85
2022-12-18T13:30:33.018Z,63.95
2022-12-18T13:33:14.794Z,64.63
2022-12-18T13:35:47.033Z,65.80
2022-12-18T13:38:21.543Z,68.07
2022-12-18T13:40:51.196Z,68.95
2022-12-18T13:43:20.702Z,70.00
2022-12-18T13:46:22.044Z,63.22
2022-12-18T13:48:56.456Z,66.18
2022-12-18T13:51:24.104Z,66.97
2022-12-18T13:53:55.664Z,67.13
2022-12-18T13:56:25.460Z,68.70
2022-12-18T13:59:12.847Z,68.57
2022-12-18T14:01:48.028Z,63.13
2022-12-18T14:04:19.898Z,68.65
2022-12-18T14:06:47.659Z,66.40
2022-12-18T14:09:20.351Z,65.53
2022-12-18T14:11:49.595Z,67.03
2022-12-18T14:14:18.051Z,60.22
2022-12-18T14:16:44.893Z,60.63
2022-12-18T14:19:17.719Z,64.30
2022-12-18T14:21:51.076Z,62.55
2022-12-18T14:24:20.150Z,66.40
2022-12-18T14:26:47.734Z,68.93
2022-12-18T14:29:30.948Z,67.65
2022-12-18T14:32:19.997Z,65.47
2022-12-18T14:34:54.734Z,67.57
2022-12-18T14:37:23.182Z,64.45
2022-12-18T14:39:55.074Z,64.50
2022-12-18T14:42:21.612Z,66.00
2022-12-18T14:45:12.934Z,64.32
2022-12-18T14:47:36.542Z,65.68
2022-12-18T14:50:03.167Z,69.28
2022-12-18T14:52:32.536Z,67.65
2022-12-18T14:54:58.989Z,69.80
2022-12-18T14:57:27.438Z,69.70
2022-12-18T14:59:53.962Z,66.07
2022-12-18T15:02:26.766Z,70.20
2022-12-18T15:05:12.776Z,68.82
2022-12-18T15:07:44.755Z,70.35
2022-12-18T15:10:14.678Z,64.05
2022-12-18T15:15:34.007Z,66.00
2022-12-18T15:18:09.724Z,67.07
2022-12-18T15:20:54.027Z,65.45
2022-12-18T15:23:23.705Z,63.22
2022-12-18T15:25:57.717Z,64.75
2022-12-18T15:28:26.774Z,66.53
2022-12-18T15:31:10.652Z,62.10
2022-12-18T15:33:42.757Z,68.28
2022-12-18T15:36:16.014Z,66.20
2022-12-18T15:38:48.840Z,72.40
2022-12-18T15:41:21.448Z,65.32
2022-12-18T15:43:52.200Z,73.30
2022-12-18T15:46:24.062Z,64.88
2022-12-18T15:49:01.379Z,63.95
2022-12-18T15:51:36.841Z,65.82
2022-12-18T15:54:05.952Z,66.03
2022-12-18T15:56:51.123Z,65.50
2022-12-18T15:59:19.398Z,63.47
2022-12-18T16:01:50.707Z,59.67
2022-12-18T16:04:22.903Z,61.88
2022-12-18T16:09:36.814Z,56.58
2022-12-18T16:12:03.780Z,61.80
2022-12-18T16:14:30.901Z,59.00
2022-12-18T16:17:06.783Z,60.72
2022-12-18T16:19:33.177Z,55.75
2022-12-18T16:21:59.882Z,58.03
2022-12-18T16:24:32.137Z,56.22
2022-12-18T16:27:00.617Z,58.45
2022-12-18T16:29:28.865Z,57.03
2022-12-18T16:31:59.417Z,59.40
2022-12-18T16:34:29.544Z,59.65
2022-12-18T16:37:05.747Z,63.05
2022-12-18T16:39:36.371Z,53.78
2022-12-18T16:42:05.700Z,51.63
2022-12-18T16:44:33.987Z,56.95
2022-12-18T16:47:02.789Z,56.05
2022-12-18T16:49:29.646Z,53.40
2022-12-18T16:51:56.236Z,55.05
2022-12-18T16:54:22.667Z,54.70
2022-12-18T16:56:51.365Z,58.80
2022-12-18T16:59:17.964Z,57.03
2022-12-18T17:01:44.691Z,56.60
2022-12-18T17:04:11.225Z,54.33
2022-12-18T17:06:43.305Z,54.25
2022-12-18T17:09:15.781Z,55.80
2022-12-18T17:11:42.273Z,52.53
2022-12-18T17:14:12.247Z,54.88
2022-12-18T17:16:38.706Z,55.00
2022-12-18T17:19:08.793Z,55.53
2022-12-18T17:21:38.738Z,53.33
2022-12-18T17:24:06.912Z,51.00
2022-12-18T17:26:33.478Z,54.45
2022-12-18T17:29:00.010Z,54.90
2022-12-18T17:31:28.913Z,51.28
2022-12-18T17:33:55.546Z,54.20
2022-12-18T17:36:22.801Z,57.78
2022-12-18T17:38:53.811Z,55.35
2022-12-18T17:41:21.114Z,56.42
2022-12-18T17:43:51.995Z,53.78
2022-12-18T17:46:18.572Z,51.40
2022-12-18T17:48:45.048Z,59.15
2022-12-18T17:51:11.932Z,52.83
2022-12-18T17:53:39.552Z,54.60
2022-12-18T17:56:08.031Z,57.72
2022-12-18T17:58:36.735Z,57.00
2022-12-18T18:01:04.782Z,56.97
2022-12-18T18:03:33.002Z,55.35
2022-12-18T18:06:00.783Z,59.20
2022-12-18T18:08:28.343Z,55.80
2022-12-18T18:10:55.439Z,57.55
2022-12-18T18:13:46.818Z,56.67
2022-12-18T18:16:13.835Z,55.95
2022-12-18T18:18:40.433Z,59.85
2022-12-18T18:21:08.485Z,57.58
2022-12-18T18:23:35.730Z,56.35
2022-12-18T18:26:06.505Z,58.63
2022-12-18T18:28:33.835Z,56.25
2022-12-18T18:31:08.185Z,56.78
2022-12-18T18:33:34.710Z,57.92
2022-12-18T18:36:01.197Z,59.15
2022-12-18T18:38:29.140Z,57.90
2022-12-18T18:41:03.216Z,62.17
2022-12-18T18:43:30.044Z,58.78
2022-12-18T18:45:57.499Z,61.25
2022-12-18T18:48:24.432Z,55.10
2022-12-18T18:50:59.168Z,58.13
2022-12-18T18:53:25.879Z,59.47
2022-12-18T18:56:26.135Z,57.65
2022-12-18T18:58:38.983Z,56.45
2022-12-18T19:01:08.327Z,58.88
2022-12-18T19:03:35.856Z,59.78
2022-12-18T19:06:02.371Z,56.58
2022-12-18T19:08:31.438Z,58.58
2022-12-18T19:10:59.660Z,60.70
2022-12-18T19:13:29.328Z,57.45
2022-12-18T19:16:16.070Z,59.30
2022-12-18T19:18:43.163Z,55.38
2022-12-18T19:21:10.847Z,56.95
2022-12-18T19:23:37.454Z,56.47
2022-12-18T19:26:26.981Z,61.50
2022-12-18T19:28:52.281Z,59.70
2022-12-18T19:31:24.351Z,56.22
2022-12-18T19:33:51.942Z,52.97
2022-12-18T19:36:29.180Z,58.17
2022-12-18T19:38:57.651Z,56.45
2022-12-18T19:41:25.621Z,62.95
2022-12-18T19:43:54.542Z,67.75
2022-12-18T19:46:23.867Z,65.35
2022-12-18T19:48:50.464Z,62.95
2022-12-18T19:51:20.109Z,61.22
2022-12-18T19:53:47.357Z,59.42
2022-12-18T19:56:16.883Z,63.85
2022-12-18T19:58:44.810Z,68.95
2022-12-18T20:01:16.513Z,70.40
2022-12-18T20:03:44.598Z,77.43
2022-12-18T20:06:28.262Z,73.75
2022-12-18T20:09:00.379Z,69.28
2022-12-18T20:11:30.456Z,72.85
2022-12-18T20:13:57.618Z,78.28
2022-12-18T20:16:27.156Z,74.60
2022-12-18T20:18:57.007Z,78.57
2022-12-18T20:21:25.146Z,63.65
2022-12-18T20:23:51.642Z,62.58
2022-12-18T20:26:18.359Z,60.10
2022-12-18T20:28:44.996Z,58.28
2022-12-18T20:31:13.491Z,59.97
2022-12-18T20:33:41.989Z,57.42
2022-12-18T20:36:12.986Z,62.43
2022-12-18T20:38:41.062Z,67.78
2022-12-18T20:41:10.799Z,60.88
2022-12-18T20:43:38.718Z,63.30
2022-12-18T20:46:07.606Z,58.23
2022-12-18T20:48:34.118Z,62.15
2022-12-18T20:51:03.933Z,61.58
2022-12-18T20:53:30.841Z,57.15
2022-12-18T20:55:57.360Z,52.92
2022-12-18T20:58:24.294Z,60.00
2022-12-18T21:01:04.916Z,59.55
2022-12-18T21:03:31.478Z,58.83
2022-12-18T21:05:57.977Z,58.90
2022-12-18T21:08:24.947Z,58.42
2022-12-18T21:10:51.475Z,59.58
2022-12-18T21:13:20.955Z,55.92
2022-12-18T21:15:47.399Z,55.58
2022-12-18T21:18:14.058Z,55.17
2022-12-18T21:20:40.865Z,58.63
2022-12-18T21:23:16.035Z,78.15
2022-12-18T21:25:44.349Z,76.07
2022-12-18T21:28:14.054Z,73.93
2022-12-18T21:30:40.840Z,74.93
2022-12-18T21:33:07.291Z,71.65
2022-12-18T21:35:33.697Z,69.20
2022-12-18T21:38:00.126Z,72.55
2022-12-18T21:40:29.123Z,59.20
2022-12-18T21:43:17.327Z,63.00
2022-12-18T21:45:44.348Z,57.35
2022-12-18T21:48:12.124Z,56.95
2022-12-18T21:50:38.581Z,55.72
2022-12-18T21:53:04.982Z,58.38
2022-12-18T21:55:31.432Z,56.88
2022-12-18T21:57:57.951Z,58.60
2022-12-18T22:00:24.399Z,61.17
2022-12-18T22:03:17.573Z,61.90
2022-12-18T22:05:37.306Z,64.97
2022-12-18T22:08:03.918Z,61.58
2022-12-18T22:10:30.498Z,66.90
2022-12-18T22:12:57.018Z,64.78
2022-12-18T22:15:23.488Z,61.13
2022-12-18T22:17:51.114Z,60.92
2022-12-18T22:20:20.012Z,62.10
2022-12-18T22:22:47.915Z,59.75
2022-12-18T22:25:14.520Z,60.20
2022-12-18T22:27:40.994Z,62.95
2022-12-18T22:30:08.917Z,54.28
2022-12-18T22:32:36.031Z,58.75
2022-12-18T22:35:10.368Z,57.33
2022-12-18T22:37:40.629Z,55.63
2022-12-18T22:40:07.653Z,60.47
2022-12-18T22:42:35.159Z,61.92
2022-12-18T22:45:01.579Z,57.78
2022-12-18T22:47:29.981Z,55.70
2022-12-18T22:49:57.705Z,61.53
2022-12-18T22:52:25.469Z,55.13
2022-12-18T22:54:54.198Z,55.22
2022-12-18T22:57:22.001Z,54.47
2022-12-18T22:59:49.730Z,53.55
2022-12-18T23:02:20.412Z,56.53
2022-12-18T23:04:47.613Z,57.95
2022-12-18T23:07:14.322Z,55.35
2022-12-18T23:09:40.736Z,52.90
2022-12-18T23:12:07.644Z,56.47
2022-12-18T23:14:34.083Z,55.13
2022-12-18T23:17:00.504Z,59.72
2022-12-18T23:19:26.937Z,55.33
2022-12-18T23:21:54.833Z,52.97
2022-12-18T23:24:23.533Z,54.92
2022-12-18T23:26:49.930Z,52.65
2022-12-18T23:29:16.417Z,49.45
2022-12-18T23:31:42.929Z,53.00
2022-12-18T23:34:11.841Z,54.97
2022-12-18T23:36:46.170Z,54.47
2022-12-18T23:39:18.805Z,51.88
2022-12-18T23:42:00.187Z,53.75
2022-12-18T23:44:26.936Z,51.10
2022-12-18T23:46:53.424Z,51.42
2022-12-18T23:49:19.945Z,49.92
2022-12-18T23:51:46.342Z,49.00
2022-12-18T23:54:12.747Z,49.10
2022-12-18T23:56:39.198Z,52.47
2022-12-18T23:59:05.596Z,51.38
